createdAt,value
2022-11-20T00:02:05.400Z,26.02
2022-11-20T00:04:33.721Z,24.77
2022-11-20T00:07:02.112Z,25.83
2022-11-20T00:09:30.440Z,27.83
2022-11-20T00:11:58.768Z,26.40
2022-11-20T00:14:31.480Z,26.85
2022-11-20T00:16:59.727Z,29.55
2022-11-20T00:19:28.182Z,27.90
2022-11-20T00:21:56.592Z,27.05
2022-11-20T00:24:24.889Z,26.63
2022-11-20T00:26:53.246Z,27.27
2022-11-20T00:29:21.793Z,26.70
2022-11-20T00:31:55.752Z,26.60
2022-11-20T00:34:25.369Z,27.48
2022-11-20T00:36:53.669Z,27.63
2022-11-20T00:39:22.334Z,28.15
2022-11-20T00:41:51.232Z,26.85
2022-11-20T00:44:19.555Z,27.00
2022-11-20T00:46:48.242Z,26.33
2022-11-20T00:49:18.141Z,28.08
2022-11-20T00:51:47.590Z,27.75
2022-11-20T00:54:16.054Z,27.80
2022-11-20T00:56:44.423Z,26.80
2022-11-20T00:59:13.674Z,28.25
2022-11-20T01:01:42.655Z,27.17
2022-11-20T01:04:11.340Z,27.52
2022-11-20T01:06:42.219Z,26.50
2022-11-20T01:09:14.458Z,26.25
2022-11-20T01:11:45.002Z,27.27
2022-11-20T01:14:18.767Z,27.48
2022-11-20T01:16:49.426Z,27.70
2022-11-20T01:19:23.855Z,27.52
2022-11-20T01:21:55.164Z,25.33
2022-11-20T01:24:24.349Z,26.77
2022-11-20T01:26:53.642Z,25.77
2022-11-20T01:29:24.659Z,24.92
2022-11-20T01:31:53.784Z,25.55
2022-11-20T01:34:24.296Z,26.30
2022-11-20T01:36:54.889Z,24.58
2022-11-20T01:39:24.908Z,26.85
2022-11-20T01:42:12.496Z,28.90
2022-11-20T01:44:52.391Z,26.92
2022-11-20T01:47:27.168Z,24.75
2022-11-20T01:49:59.338Z,25.13
2022-11-20T01:52:32.759Z,25.58
2022-11-20T01:55:04.034Z,26.73
2022-11-20T01:57:35.734Z,25.35
2022-11-20T02:00:07.777Z,24.77
2022-11-20T02:02:43.137Z,25.08
2022-11-20T02:05:18.986Z,25.88
2022-11-20T02:07:50.335Z,24.60
2022-11-20T02:10:19.097Z,24.42
2022-11-20T02:13:04.884Z,25.13
2022-11-20T02:15:35.413Z,26.55
2022-11-20T02:18:04.050Z,25.30
2022-11-20T02:20:32.488Z,24.95
2022-11-20T02:23:07.551Z,25.92
2022-11-20T02:25:39.046Z,26.95
2022-11-20T02:28:16.534Z,25.42
2022-11-20T02:30:45.145Z,25.83
2022-11-20T02:33:13.459Z,24.75
2022-11-20T02:35:49.410Z,25.77
2022-11-20T02:38:17.734Z,22.90
2022-11-20T02:40:51.422Z,26.02
2022-11-20T02:43:22.659Z,24.40
2022-11-20T02:45:51.492Z,24.45
2022-11-20T02:48:20.006Z,24.48
2022-11-20T02:50:48.424Z,25.15
2022-11-20T02:53:16.833Z,23.75
2022-11-20T02:55:45.207Z,25.50
2022-11-20T02:58:15.089Z,27.50
2022-11-20T03:00:43.296Z,25.58
2022-11-20T03:03:11.691Z,24.65
2022-11-20T03:05:40.010Z,25.83
2022-11-20T03:08:08.273Z,26.63
2022-11-20T03:10:36.547Z,27.50
2022-11-20T03:13:05.002Z,27.70
2022-11-20T03:15:34.766Z,27.15
2022-11-20T03:18:03.316Z,26.30
2022-11-20T03:20:31.706Z,26.98
2022-11-20T03:23:00.036Z,24.65
2022-11-20T03:25:28.561Z,26.27
2022-11-20T03:27:57.249Z,26.05
2022-11-20T03:30:29.368Z,24.35
2022-11-20T03:33:00.841Z,25.60
2022-11-20T03:35:29.277Z,26.80
2022-11-20T03:38:00.773Z,24.70
2022-11-20T03:40:29.228Z,25.77
2022-11-20T03:42:57.605Z,25.90
2022-11-20T03:45:25.930Z,24.60
2022-11-20T03:47:56.112Z,23.88
2022-11-20T03:50:25.959Z,26.05
2022-11-20T03:52:54.650Z,24.65
2022-11-20T03:55:23.018Z,25.08
2022-11-20T03:57:51.350Z,26.33
2022-11-20T04:00:20.034Z,26.20
2022-11-20T04:02:48.323Z,25.02
2022-11-20T04:05:16.716Z,25.13
2022-11-20T04:07:46.533Z,23.83
2022-11-20T04:10:14.907Z,25.83
2022-11-20T04:12:43.311Z,24.45
2022-11-20T04:15:12.153Z,25.88
2022-11-20T04:17:40.617Z,25.02
2022-11-20T04:20:10.171Z,24.85
2022-11-20T04:22:38.562Z,26.35
2022-11-20T04:25:09.294Z,27.13
2022-11-20T04:27:37.871Z,26.58
2022-11-20T04:30:07.252Z,26.33
2022-11-20T04:32:36.659Z,25.00
2022-11-20T04:35:05.155Z,24.98
2022-11-20T04:37:33.414Z,25.88
2022-11-20T04:40:01.755Z,25.63
2022-11-20T04:42:31.521Z,25.33
2022-11-20T04:45:00.273Z,26.80
2022-11-20T04:47:28.679Z,24.63
2022-11-20T04:49:57.112Z,26.00
2022-11-20T04:52:25.508Z,26.52
2022-11-20T04:54:54.852Z,24.30
2022-11-20T04:57:23.202Z,26.23
2022-11-20T04:59:52.938Z,27.52
2022-11-20T05:02:21.610Z,24.05
2022-11-20T05:04:50.101Z,26.92
2022-11-20T05:07:18.629Z,26.63
2022-11-20T05:09:47.494Z,27.67
2022-11-20T05:12:15.947Z,27.00
2022-11-20T05:14:44.358Z,26.73
2022-11-20T05:17:14.475Z,26.33
2022-11-20T05:19:42.921Z,30.85
2022-11-20T05:22:11.707Z,26.67
2022-11-20T05:24:40.100Z,26.27
2022-11-20T05:27:08.399Z,28.80
2022-11-20T05:29:41.043Z,25.80
2022-11-20T05:32:10.881Z,26.90
2022-11-20T05:34:40.651Z,25.13
2022-11-20T05:37:08.949Z,24.70
2022-11-20T05:39:37.415Z,26.15
2022-11-20T05:42:25.448Z,24.88
2022-11-20T05:44:53.745Z,25.45
2022-11-20T05:47:22.100Z,25.52
2022-11-20T05:49:51.933Z,25.50
2022-11-20T05:52:20.222Z,23.77
2022-11-20T05:54:48.458Z,26.08
2022-11-20T05:57:17.403Z,26.02
2022-11-20T05:59:45.775Z,26.52
2022-11-20T06:02:14.078Z,25.75
2022-11-20T06:04:42.380Z,25.10
2022-11-20T06:07:12.378Z,26.52
2022-11-20T06:09:40.773Z,26.50
2022-11-20T06:12:09.563Z,24.90
2022-11-20T06:14:37.820Z,26.65
2022-11-20T06:17:06.174Z,26.83
2022-11-20T06:19:34.508Z,25.75
2022-11-20T06:22:02.963Z,26.05
2022-11-20T06:24:32.721Z,25.98
2022-11-20T06:27:01.069Z,25.05
2022-11-20T06:29:33.780Z,26.98
2022-11-20T06:32:02.683Z,26.65
2022-11-20T06:34:31.051Z,25.92
2022-11-20T06:36:59.557Z,23.27
2022-11-20T06:39:27.878Z,27.63
2022-11-20T06:41:59.165Z,26.48
2022-11-20T06:44:28.018Z,22.98
2022-11-20T06:46:56.385Z,26.45
2022-11-20T06:49:25.066Z,25.55
2022-11-20T06:51:53.665Z,24.70
2022-11-20T06:54:26.532Z,24.88
2022-11-20T06:56:55.011Z,24.77
2022-11-20T06:59:24.821Z,24.02
2022-11-20T07:01:53.408Z,25.20
2022-11-20T07:04:21.796Z,25.75
2022-11-20T07:06:50.810Z,25.55
2022-11-20T07:09:20.634Z,26.65
2022-11-20T07:11:54.489Z,26.20
2022-11-20T07:14:34.346Z,29.00
2022-11-20T07:17:02.930Z,25.85
2022-11-20T07:19:31.535Z,28.92
2022-11-20T07:21:59.932Z,25.42
2022-11-20T07:24:28.326Z,27.88
2022-11-20T07:26:56.650Z,26.90
2022-11-20T07:29:25.034Z,25.35
2022-11-20T07:31:56.627Z,26.50
2022-11-20T07:34:25.062Z,24.98
2022-11-20T07:36:53.442Z,27.15
2022-11-20T07:39:21.963Z,28.33
2022-11-20T07:41:50.604Z,27.77
2022-11-20T07:44:19.086Z,26.00
2022-11-20T07:46:47.389Z,29.40
2022-11-20T07:49:17.168Z,28.38
2022-11-20T07:51:47.892Z,27.20
2022-11-20T07:54:18.954Z,27.55
2022-11-20T07:56:47.628Z,26.85
2022-11-20T07:59:16.622Z,27.30
2022-11-20T08:01:45.525Z,27.08
2022-11-20T08:04:17.290Z,27.25
2022-11-20T08:06:45.702Z,27.20
2022-11-20T08:09:14.150Z,30.05
2022-11-20T08:11:59.711Z,28.25
2022-11-20T08:14:28.760Z,27.40
2022-11-20T08:17:00.461Z,28.35
2022-11-20T08:19:30.588Z,27.48
2022-11-20T08:21:59.043Z,27.20
2022-11-20T08:24:30.323Z,28.13
2022-11-20T08:27:00.201Z,28.52
2022-11-20T08:29:29.236Z,26.77
2022-11-20T08:31:58.002Z,28.92
2022-11-20T08:34:26.363Z,27.58
2022-11-20T08:36:56.275Z,26.85
2022-11-20T08:39:24.726Z,30.17
2022-11-20T08:41:53.282Z,30.52
2022-11-20T08:44:21.745Z,31.83
2022-11-20T08:46:50.197Z,30.45
2022-11-20T08:49:19.098Z,27.55
2022-11-20T08:51:49.447Z,30.60
2022-11-20T08:54:22.811Z,30.80
2022-11-20T08:56:51.242Z,30.52
2022-11-20T09:00:04.532Z,31.20
2022-11-20T09:02:18.156Z,29.75
2022-11-20T09:04:46.623Z,28.65
2022-11-20T09:07:14.935Z,28.45
2022-11-20T09:09:46.342Z,28.50
2022-11-20T09:12:14.822Z,30.02
2022-11-20T09:14:44.400Z,29.55
2022-11-20T09:17:14.566Z,27.95
2022-11-20T09:19:43.079Z,31.35
2022-11-20T09:22:11.783Z,31.42
2022-11-20T09:24:40.214Z,28.73
2022-11-20T09:27:09.982Z,29.77
2022-11-20T09:29:38.607Z,28.98
2022-11-20T09:32:10.222Z,28.67
2022-11-20T09:34:38.559Z,30.15
2022-11-20T09:37:07.787Z,30.23
2022-11-20T09:39:40.093Z,27.13
2022-11-20T09:42:26.664Z,29.08
2022-11-20T09:45:24.445Z,28.15
2022-11-20T09:48:08.418Z,28.60
2022-11-20T09:50:41.393Z,28.95
2022-11-20T09:53:22.816Z,29.92
2022-11-20T09:55:51.563Z,28.00
2022-11-20T09:58:30.423Z,27.77
2022-11-20T10:01:08.105Z,27.80
2022-11-20T10:03:45.569Z,28.00
2022-11-20T10:06:18.666Z,29.55
2022-11-20T10:08:57.790Z,29.80
2022-11-20T10:11:35.658Z,30.20
2022-11-20T10:14:16.101Z,29.70
2022-11-20T10:16:49.985Z,28.85
2022-11-20T10:19:35.900Z,30.75
2022-11-20T10:22:13.502Z,30.90
2022-11-20T10:24:49.269Z,28.98
2022-11-20T10:27:52.649Z,27.85
2022-11-20T10:30:28.723Z,24.67
2022-11-20T10:33:05.388Z,28.13
2022-11-20T10:35:38.472Z,28.33
2022-11-20T10:38:13.599Z,27.05
2022-11-20T10:40:45.424Z,24.67
2022-11-20T10:43:21.134Z,26.00
2022-11-20T10:45:59.002Z,28.52
2022-11-20T10:48:30.718Z,27.30
2022-11-20T10:51:13.084Z,28.00
2022-11-20T10:54:00.129Z,28.13
2022-11-20T10:56:37.809Z,27.52
2022-11-20T10:59:25.351Z,25.70
2022-11-20T11:01:55.172Z,27.10
2022-11-20T11:04:35.657Z,29.75
2022-11-20T11:07:11.803Z,27.52
2022-11-20T11:09:45.298Z,29.33
2022-11-20T11:12:15.273Z,29.45
2022-11-20T11:14:49.620Z,29.60
2022-11-20T11:17:30.821Z,27.83
2022-11-20T11:20:04.643Z,25.55
2022-11-20T11:22:35.156Z,26.02
2022-11-20T11:25:04.543Z,24.52
2022-11-20T11:27:32.989Z,26.58
2022-11-20T11:30:15.324Z,23.75
2022-11-20T11:32:46.212Z,25.65
2022-11-20T11:35:27.345Z,26.30
2022-11-20T11:38:04.493Z,25.08
2022-11-20T11:40:38.726Z,24.83
2022-11-20T11:43:33.903Z,25.55
2022-11-20T11:46:22.999Z,24.88
2022-11-20T11:48:59.426Z,24.80
2022-11-20T11:51:33.857Z,24.45
2022-11-20T11:54:04.681Z,26.58
2022-11-20T11:56:35.399Z,24.02
2022-11-20T11:59:08.880Z,25.23
2022-11-20T12:01:46.175Z,22.73
2022-11-20T12:04:23.391Z,22.25
2022-11-20T12:06:58.890Z,22.67
2022-11-20T12:09:35.769Z,22.30
2022-11-20T12:12:13.508Z,22.23
2022-11-20T12:14:45.457Z,25.92
2022-11-20T12:17:15.813Z,22.42
2022-11-20T12:19:48.509Z,23.33
2022-11-20T12:22:30.006Z,23.40
2022-11-20T12:25:04.385Z,24.52
2022-11-20T12:27:57.301Z,21.88
2022-11-20T12:30:26.350Z,23.30
2022-11-20T12:33:17.705Z,23.52
2022-11-20T12:36:10.219Z,24.65
2022-11-20T12:39:01.325Z,24.48
2022-11-20T12:42:07.320Z,24.63
2022-11-20T12:45:11.997Z,24.08
2022-11-20T12:48:26.866Z,22.90
2022-11-20T12:51:17.318Z,23.88
2022-11-20T12:53:56.803Z,23.83
2022-11-20T12:56:39.252Z,23.20
2022-11-20T12:59:57.071Z,25.05
2022-11-20T13:03:18.960Z,23.95
2022-11-20T13:05:58.716Z,23.90
2022-11-20T13:08:42.675Z,23.60
2022-11-20T13:11:22.023Z,23.83
2022-11-20T13:14:14.361Z,23.30
2022-11-20T13:16:50.699Z,21.65
2022-11-20T13:19:20.628Z,23.35
2022-11-20T13:21:51.482Z,22.85
2022-11-20T13:24:28.051Z,22.00
2022-11-20T13:27:22.138Z,23.23
2022-11-20T13:30:05.501Z,22.25
2022-11-20T13:32:49.942Z,22.45
2022-11-20T13:35:33.638Z,22.75
2022-11-20T13:38:05.237Z,22.67
2022-11-20T13:40:38.729Z,23.63
2022-11-20T13:43:18.316Z,23.38
2022-11-20T13:46:11.876Z,22.42
2022-11-20T13:48:46.290Z,21.80
2022-11-20T13:51:33.749Z,21.80
2022-11-20T13:54:51.512Z,24.08
2022-11-20T13:57:50.692Z,21.88
2022-11-20T14:00:20.871Z,22.40
2022-11-20T14:03:09.618Z,21.92
2022-11-20T14:05:41.317Z,22.92
2022-11-20T14:08:20.124Z,25.33
2022-11-20T14:10:48.385Z,23.83
2022-11-20T14:13:36.689Z,22.48
2022-11-20T14:16:08.556Z,21.55
2022-11-20T14:18:37.237Z,22.83
2022-11-20T14:21:08.808Z,21.10
2022-11-20T14:23:43.102Z,24.00
2022-11-20T14:26:18.061Z,22.40
2022-11-20T14:29:06.533Z,22.88
2022-11-20T14:31:35.126Z,22.90
2022-11-20T14:34:06.992Z,23.52
2022-11-20T14:36:35.887Z,22.70
2022-11-20T14:39:04.632Z,23.42
2022-11-20T14:41:33.738Z,25.23
2022-11-20T14:44:13.324Z,25.40
2022-11-20T14:46:41.932Z,25.17
2022-11-20T14:49:12.971Z,27.30
2022-11-20T14:51:45.737Z,27.05
2022-11-20T14:54:23.280Z,26.85
2022-11-20T14:56:57.331Z,27.33
2022-11-20T14:59:29.742Z,28.63
2022-11-20T15:02:03.333Z,26.67
2022-11-20T15:04:47.601Z,28.65
2022-11-20T15:07:38.903Z,29.13
2022-11-20T15:10:35.024Z,28.45
2022-11-20T15:13:11.293Z,29.75
2022-11-20T15:15:49.190Z,32.65
2022-11-20T15:18:20.917Z,34.60
2022-11-20T15:20:50.160Z,33.17
2022-11-20T15:23:20.781Z,31.90
2022-11-20T15:26:06.642Z,32.03
2022-11-20T15:28:38.173Z,27.70
2022-11-20T15:31:18.342Z,29.20
2022-11-20T15:33:46.773Z,31.17
2022-11-20T15:36:15.206Z,28.17
2022-11-20T15:38:43.539Z,27.15
2022-11-20T15:41:12.487Z,29.42
2022-11-20T15:43:40.961Z,29.25
2022-11-20T15:46:18.264Z,26.52
2022-11-20T15:48:58.859Z,27.55
2022-11-20T15:51:31.956Z,27.80
2022-11-20T15:54:00.903Z,29.23
2022-11-20T15:56:29.860Z,29.13
2022-11-20T15:59:07.480Z,27.88
2022-11-20T16:01:37.576Z,29.17
2022-11-20T16:04:11.082Z,29.00
2022-11-20T16:06:39.877Z,33.78
2022-11-20T16:09:08.566Z,31.67
2022-11-20T16:11:37.619Z,32.63
2022-11-20T16:14:26.417Z,31.98
2022-11-20T16:16:56.306Z,33.88
2022-11-20T16:19:24.778Z,34.28
2022-11-20T16:21:55.211Z,35.80
2022-11-20T16:24:36.978Z,33.85
2022-11-20T16:27:13.096Z,35.88
2022-11-20T16:29:44.762Z,35.75
2022-11-20T16:32:29.361Z,34.45
2022-11-20T16:34:59.367Z,31.58
2022-11-20T16:37:27.883Z,34.08
2022-11-20T16:40:13.144Z,34.13
2022-11-20T16:43:14.410Z,31.23
2022-11-20T16:46:17.779Z,26.60
2022-11-20T16:49:14.259Z,27.75
2022-11-20T16:51:44.891Z,26.63
2022-11-20T16:54:20.800Z,26.88
2022-11-20T16:56:54.005Z,25.60
2022-11-20T16:59:31.974Z,25.33
2022-11-20T17:02:07.165Z,24.77
2022-11-20T17:07:37.993Z,24.50
2022-11-20T17:10:11.356Z,25.45
2022-11-20T17:12:52.087Z,26.45
2022-11-20T17:15:26.966Z,26.55
2022-11-20T17:21:22.900Z,25.20
2022-11-20T17:23:54.016Z,28.65
2022-11-20T17:26:30.880Z,25.27
2022-11-20T17:29:10.211Z,28.45
2022-11-20T17:31:49.052Z,26.90
2022-11-20T17:34:18.377Z,27.55
2022-11-20T17:36:54.288Z,25.65
2022-11-20T17:39:28.737Z,28.23
2022-11-20T17:42:14.602Z,28.45
2022-11-20T17:44:47.765Z,28.60
2022-11-20T17:47:18.730Z,27.67
2022-11-20T17:49:47.933Z,26.63
2022-11-20T17:52:17.939Z,29.08
2022-11-20T17:54:46.840Z,28.85
2022-11-20T17:57:32.533Z,28.77
2022-11-20T18:00:01.164Z,28.90
2022-11-20T18:02:45.082Z,26.23
2022-11-20T18:05:15.629Z,27.02
2022-11-20T18:07:45.740Z,27.98
2022-11-20T18:10:34.916Z,27.58
2022-11-20T18:13:09.179Z,28.08
2022-11-20T18:15:41.368Z,27.23
2022-11-20T18:18:10.335Z,28.00
2022-11-20T18:20:42.180Z,27.77
2022-11-20T18:23:13.397Z,25.92
2022-11-20T18:25:43.632Z,26.63
2022-11-20T18:28:12.185Z,25.38
2022-11-20T18:30:40.576Z,23.92
2022-11-20T18:33:09.059Z,26.00
2022-11-20T18:35:37.841Z,26.95
2022-11-20T18:38:06.237Z,29.20
2022-11-20T18:40:38.085Z,27.67
2022-11-20T18:43:24.508Z,28.55
2022-11-20T18:45:53.061Z,25.08
2022-11-20T18:48:21.463Z,25.23
2022-11-20T18:50:49.825Z,26.45
2022-11-20T18:53:18.160Z,24.90
2022-11-20T18:55:48.034Z,25.95
2022-11-20T18:58:16.511Z,24.67
2022-11-20T19:00:45.310Z,25.88
2022-11-20T19:03:15.458Z,27.45
2022-11-20T19:05:43.991Z,26.25
2022-11-20T19:08:12.303Z,24.60
2022-11-20T19:10:40.715Z,27.45
2022-11-20T19:13:34.339Z,26.55
2022-11-20T19:16:04.519Z,25.75
2022-11-20T19:18:32.961Z,28.27
2022-11-20T19:21:11.623Z,28.25
2022-11-20T19:23:40.087Z,28.15
2022-11-20T19:26:09.374Z,27.08
2022-11-20T19:28:41.873Z,28.00
2022-11-20T19:31:12.407Z,29.17
2022-11-20T19:33:41.270Z,29.08
2022-11-20T19:36:11.173Z,28.80
2022-11-20T19:38:43.707Z,25.35
2022-11-20T19:41:17.179Z,28.17
2022-11-20T19:43:49.775Z,27.55
2022-11-20T19:46:21.109Z,27.70
2022-11-20T19:48:49.654Z,27.88
2022-11-20T19:51:20.179Z,29.70
2022-11-20T19:53:48.592Z,30.40
2022-11-20T19:56:17.183Z,30.90
2022-11-20T19:58:46.956Z,31.60
2022-11-20T20:01:17.556Z,31.13
2022-11-20T20:03:46.916Z,30.25
2022-11-20T20:06:17.395Z,33.75
2022-11-20T20:08:46.240Z,36.63
2022-11-20T20:11:19.196Z,36.08
2022-11-20T20:13:49.033Z,32.67
2022-11-20T20:16:19.052Z,29.77
2022-11-20T20:18:47.586Z,34.50
2022-11-20T20:21:18.869Z,31.35
2022-11-20T20:23:51.335Z,34.17
2022-11-20T20:26:19.816Z,34.55
2022-11-20T20:28:49.705Z,33.40
2022-11-20T20:31:20.663Z,32.30
2022-11-20T20:33:49.105Z,32.08
2022-11-20T20:36:19.689Z,33.50
2022-11-20T20:38:48.503Z,31.83
2022-11-20T20:41:20.730Z,30.92
2022-11-20T20:44:07.847Z,34.30
2022-11-20T20:46:36.592Z,35.42
2022-11-20T20:49:04.932Z,34.72
2022-11-20T20:51:33.613Z,33.05
2022-11-20T20:54:01.976Z,34.85
2022-11-20T20:56:30.327Z,34.95
2022-11-20T20:59:00.084Z,33.58
2022-11-20T21:01:29.695Z,32.45
2022-11-20T21:03:58.889Z,35.03
2022-11-20T21:06:27.755Z,37.85
2022-11-20T21:08:57.501Z,38.50
2022-11-20T21:11:26.187Z,35.35
2022-11-20T21:13:54.568Z,34.97
2022-11-20T21:16:25.121Z,34.70
2022-11-20T21:18:53.471Z,33.90
2022-11-20T21:21:39.511Z,34.72
2022-11-20T21:24:08.826Z,34.42
2022-11-20T21:26:37.196Z,36.35
2022-11-20T21:29:05.497Z,34.30
2022-11-20T21:31:35.484Z,33.85
2022-11-20T21:34:04.280Z,35.70
2022-11-20T21:36:33.802Z,34.33
2022-11-20T21:39:02.160Z,32.30
2022-11-20T21:41:31.634Z,31.13
2022-11-20T21:44:30.676Z,32.97
2022-11-20T21:46:50.817Z,32.35
2022-11-20T21:49:19.414Z,31.65
2022-11-20T21:51:47.736Z,32.45
2022-11-20T21:54:17.652Z,33.20
2022-11-20T21:56:46.124Z,32.97
2022-11-20T21:59:14.823Z,34.88
2022-11-20T22:01:43.705Z,35.08
2022-11-20T22:04:16.534Z,35.53
2022-11-20T22:06:44.836Z,35.80
2022-11-20T22:09:13.159Z,36.88
2022-11-20T22:11:41.432Z,34.80
2022-11-20T22:14:24.857Z,35.50
2022-11-20T22:16:54.402Z,34.85
2022-11-20T22:19:24.588Z,37.42
2022-11-20T22:21:53.155Z,36.30
2022-11-20T22:24:23.708Z,33.28
2022-11-20T22:26:52.420Z,34.33
2022-11-20T22:29:22.027Z,34.95
2022-11-20T22:31:53.241Z,35.50
2022-11-20T22:34:23.289Z,36.33
2022-11-20T22:36:52.159Z,35.67
2022-11-20T22:39:22.854Z,35.67
2022-11-20T22:41:51.174Z,36.30
2022-11-20T22:44:19.431Z,37.75
2022-11-20T22:46:47.730Z,32.05
2022-11-20T22:49:16.093Z,34.08
2022-11-20T22:51:45.698Z,35.83
2022-11-20T22:54:14.373Z,37.25
2022-11-20T22:56:43.020Z,37.90
2022-11-20T22:59:11.615Z,36.58
2022-11-20T23:01:40.191Z,36.85
2022-11-20T23:04:11.298Z,37.40
2022-11-20T23:06:39.831Z,36.58
2022-11-20T23:09:11.530Z,36.80
2022-11-20T23:11:40.871Z,36.70
2022-11-20T23:14:13.655Z,35.95
2022-11-20T23:16:42.299Z,37.25
2022-11-20T23:19:13.188Z,36.55
2022-11-20T23:21:42.910Z,35.53
2022-11-20T23:24:13.035Z,37.67
2022-11-20T23:26:42.311Z,36.55
2022-11-20T23:29:10.643Z,35.58
2022-11-20T23:31:39.005Z,38.75
2022-11-20T23:34:07.349Z,42.08
2022-11-20T23:36:35.642Z,37.00
2022-11-20T23:39:04.257Z,36.35
2022-11-20T23:41:33.943Z,39.65
2022-11-20T23:44:02.225Z,35.58
2022-11-20T23:46:30.560Z,37.17
2022-11-20T23:48:58.906Z,37.03
2022-11-20T23:51:27.243Z,38.20
2022-11-20T23:53:56.177Z,40.47
2022-11-20T23:56:26.737Z,38.35
2022-11-20T23:58:56.443Z,37.75
